sensor_id;sensor_type;location;lat;lon;timestamp;pressure;altitude;pressure_sealevel;temperature;humidity
15817;BME280;8009;50.070;8.232;2023-05-21T00:00:21;99782.13;;;17.43;63.63
15817;BME280;8009;50.070;8.232;2023-05-21T00:02:53;99778.41;;;17.44;63.43
15817;BME280;8009;50.070;8.232;2023-05-21T00:05:26;99778.88;;;17.40;63.43
15817;BME280;8009;50.070;8.232;2023-05-21T00:07:56;99782.81;;;17.37;63.77
15817;BME280;8009;50.070;8.232;2023-05-21T00:10:24;99769.22;;;17.53;63.25
15817;BME280;8009;50.070;8.232;2023-05-21T00:12:53;99768.06;;;17.64;63.23
15817;BME280;8009;50.070;8.232;2023-05-21T00:15:21;99775.78;;;17.26;64.32
15817;BME280;8009;50.070;8.232;2023-05-21T00:17:49;99768.69;;;17.50;63.54
15817;BME280;8009;50.070;8.232;2023-05-21T00:20:19;99765.91;;;17.34;63.82
15817;BME280;8009;50.070;8.232;2023-05-21T00:22:50;99764.38;;;17.39;64.47
15817;BME280;8009;50.070;8.232;2023-05-21T00:25:18;99764.13;;;17.16;64.55
15817;BME280;8009;50.070;8.232;2023-05-21T00:27:47;99767.16;;;17.05;64.75
15817;BME280;8009;50.070;8.232;2023-05-21T00:30:15;99760.03;;;17.12;64.84
15817;BME280;8009;50.070;8.232;2023-05-21T00:32:44;99765.13;;;17.07;64.54
15817;BME280;8009;50.070;8.232;2023-05-21T00:35:12;99761.81;;;17.29;63.99
15817;BME280;8009;50.070;8.232;2023-05-21T00:37:40;99762.66;;;17.30;63.66
15817;BME280;8009;50.070;8.232;2023-05-21T00:40:12;99752.28;;;17.34;63.61
15817;BME280;8009;50.070;8.232;2023-05-21T00:42:41;99745.47;;;17.38;64.04
15817;BME280;8009;50.070;8.232;2023-05-21T00:45:12;99748.50;;;17.26;64.19
15817;BME280;8009;50.070;8.232;2023-05-21T00:47:42;99750.38;;;17.26;64.35
15817;BME280;8009;50.070;8.232;2023-05-21T00:50:13;99748.78;;;17.07;64.77
15817;BME280;8009;50.070;8.232;2023-05-21T00:52:42;99740.81;;;17.22;64.79
15817;BME280;8009;50.070;8.232;2023-05-21T00:55:15;99747.16;;;17.30;64.60
15817;BME280;8009;50.070;8.232;2023-05-21T00:57:43;99741.88;;;17.37;63.65
15817;BME280;8009;50.070;8.232;2023-05-21T01:00:13;99740.03;;;17.46;63.79
15817;BME280;8009;50.070;8.232;2023-05-21T01:02:42;99738.97;;;17.30;63.89
15817;BME280;8009;50.070;8.232;2023-05-21T01:05:11;99730.75;;;17.22;64.25
15817;BME280;8009;50.070;8.232;2023-05-21T01:07:40;99733.31;;;17.24;64.15
15817;BME280;8009;50.070;8.232;2023-05-21T01:10:13;99731.06;;;17.19;64.29
15817;BME280;8009;50.070;8.232;2023-05-21T01:12:45;99725.84;;;17.34;63.41
15817;BME280;8009;50.070;8.232;2023-05-21T01:15:38;99735.16;;;17.15;64.84
15817;BME280;8009;50.070;8.232;2023-05-21T01:18:06;99736.22;;;17.22;64.51
15817;BME280;8009;50.070;8.232;2023-05-21T01:20:35;99736.72;;;17.18;64.35
15817;BME280;8009;50.070;8.232;2023-05-21T01:23:06;99726.72;;;16.92;65.21
15817;BME280;8009;50.070;8.232;2023-05-21T01:25:34;99737.09;;;16.89;65.56
15817;BME280;8009;50.070;8.232;2023-05-21T01:28:03;99726.34;;;16.61;66.29
15817;BME280;8009;50.070;8.232;2023-05-21T01:30:32;99719.88;;;16.88;65.29
15817;BME280;8009;50.070;8.232;2023-05-21T01:33:02;99727.63;;;17.09;64.88
15817;BME280;8009;50.070;8.232;2023-05-21T01:35:33;99718.91;;;17.05;65.22
15817;BME280;8009;50.070;8.232;2023-05-21T01:38:11;99708.53;;;17.09;64.92
15817;BME280;8009;50.070;8.232;2023-05-21T01:40:45;99708.00;;;17.05;64.89
15817;BME280;8009;50.070;8.232;2023-05-21T01:43:15;99713.44;;;16.97;64.86
15817;BME280;8009;50.070;8.232;2023-05-21T01:45:45;99708.06;;;17.14;64.62
15817;BME280;8009;50.070;8.232;2023-05-21T01:48:15;99715.03;;;17.16;64.54
15817;BME280;8009;50.070;8.232;2023-05-21T01:50:45;99704.41;;;16.97;64.92
15817;BME280;8009;50.070;8.232;2023-05-21T01:53:17;99709.47;;;16.84;65.31
15817;BME280;8009;50.070;8.232;2023-05-21T01:55:45;99704.81;;;16.76;65.34
15817;BME280;8009;50.070;8.232;2023-05-21T01:58:13;99699.56;;;16.83;65.15
15817;BME280;8009;50.070;8.232;2023-05-21T02:00:43;99700.69;;;16.72;65.32
15817;BME280;8009;50.070;8.232;2023-05-21T02:03:12;99692.84;;;17.03;64.51
15817;BME280;8009;50.070;8.232;2023-05-21T02:05:41;99698.59;;;16.92;65.08
15817;BME280;8009;50.070;8.232;2023-05-21T02:08:10;99696.78;;;16.74;65.59
15817;BME280;8009;50.070;8.232;2023-05-21T02:10:42;99692.97;;;16.93;64.57
15817;BME280;8009;50.070;8.232;2023-05-21T02:13:10;99695.50;;;16.61;65.71
15817;BME280;8009;50.070;8.232;2023-05-21T02:15:39;99688.41;;;16.68;65.53
15817;BME280;8009;50.070;8.232;2023-05-21T02:18:07;99690.91;;;16.61;65.92
15817;BME280;8009;50.070;8.232;2023-05-21T02:20:35;99690.38;;;16.57;66.07
15817;BME280;8009;50.070;8.232;2023-05-21T02:23:04;99692.66;;;16.70;66.04
15817;BME280;8009;50.070;8.232;2023-05-21T02:25:32;99698.34;;;16.77;65.13
15817;BME280;8009;50.070;8.232;2023-05-21T02:28:03;99690.72;;;16.89;65.14
15817;BME280;8009;50.070;8.232;2023-05-21T02:30:32;99690.41;;;16.66;65.88
15817;BME280;8009;50.070;8.232;2023-05-21T02:33:00;99690.63;;;16.72;65.36
15817;BME280;8009;50.070;8.232;2023-05-21T02:35:28;99690.91;;;16.61;66.25
15817;BME280;8009;50.070;8.232;2023-05-21T02:37:57;99693.63;;;16.61;66.10
15817;BME280;8009;50.070;8.232;2023-05-21T02:40:27;99686.59;;;16.50;66.17
15817;BME280;8009;50.070;8.232;2023-05-21T02:42:57;99702.47;;;16.29;67.23
15817;BME280;8009;50.070;8.232;2023-05-21T02:45:28;99688.97;;;16.45;66.54
15817;BME280;8009;50.070;8.232;2023-05-21T02:47:57;99687.19;;;16.36;66.66
15817;BME280;8009;50.070;8.232;2023-05-21T02:50:25;99688.34;;;16.60;66.26
15817;BME280;8009;50.070;8.232;2023-05-21T02:52:54;99689.50;;;16.49;66.32
15817;BME280;8009;50.070;8.232;2023-05-21T02:55:23;99692.75;;;16.52;66.54
15817;BME280;8009;50.070;8.232;2023-05-21T02:57:52;99692.53;;;16.46;66.25
15817;BME280;8009;50.070;8.232;2023-05-21T03:00:20;99689.22;;;16.34;66.65
15817;BME280;8009;50.070;8.232;2023-05-21T03:02:51;99698.41;;;16.33;66.63
15817;BME280;8009;50.070;8.232;2023-05-21T03:05:20;99693.97;;;16.32;66.80
15817;BME280;8009;50.070;8.232;2023-05-21T03:07:48;99691.63;;;16.37;66.56
15817;BME280;8009;50.070;8.232;2023-05-21T03:10:17;99692.44;;;16.29;67.03
15817;BME280;8009;50.070;8.232;2023-05-21T03:12:45;99695.84;;;16.31;66.93
15817;BME280;8009;50.070;8.232;2023-05-21T03:15:14;99689.59;;;16.39;66.78
15817;BME280;8009;50.070;8.232;2023-05-21T03:17:50;99684.94;;;16.31;67.17
15817;BME280;8009;50.070;8.232;2023-05-21T03:20:19;99682.72;;;16.27;67.15
15817;BME280;8009;50.070;8.232;2023-05-21T03:22:48;99685.00;;;16.40;66.45
15817;BME280;8009;50.070;8.232;2023-05-21T03:25:17;99682.13;;;16.41;66.58
15817;BME280;8009;50.070;8.232;2023-05-21T03:27:46;99683.88;;;16.24;67.07
15817;BME280;8009;50.070;8.232;2023-05-21T03:30:14;99684.19;;;16.47;66.65
15817;BME280;8009;50.070;8.232;2023-05-21T03:32:43;99688.88;;;16.63;65.69
15817;BME280;8009;50.070;8.232;2023-05-21T03:35:14;99690.38;;;16.57;66.12
15817;BME280;8009;50.070;8.232;2023-05-21T03:37:42;99684.28;;;16.29;67.41
15817;BME280;8009;50.070;8.232;2023-05-21T03:40:12;99689.41;;;16.41;66.64
15817;BME280;8009;50.070;8.232;2023-05-21T03:42:40;99687.09;;;16.46;66.67
15817;BME280;8009;50.070;8.232;2023-05-21T03:45:09;99677.88;;;16.21;67.80
15817;BME280;8009;50.070;8.232;2023-05-21T03:47:38;99687.94;;;16.46;66.69
15817;BME280;8009;50.070;8.232;2023-05-21T03:50:08;99684.53;;;16.18;67.59
15817;BME280;8009;50.070;8.232;2023-05-21T03:52:39;99684.53;;;16.18;67.33
15817;BME280;8009;50.070;8.232;2023-05-21T03:55:08;99675.47;;;16.18;67.54
15817;BME280;8009;50.070;8.232;2023-05-21T03:57:37;99687.31;;;16.26;67.37
15817;BME280;8009;50.070;8.232;2023-05-21T04:00:06;99681.06;;;16.34;67.51
15817;BME280;8009;50.070;8.232;2023-05-21T04:02:35;99680.03;;;16.35;67.24
15817;BME280;8009;50.070;8.232;2023-05-21T04:05:05;99679.44;;;16.49;67.08
15817;BME280;8009;50.070;8.232;2023-05-21T04:07:33;99686.69;;;16.41;67.17
15817;BME280;8009;50.070;8.232;2023-05-21T04:10:06;99681.09;;;16.42;66.53
15817;BME280;8009;50.070;8.232;2023-05-21T04:12:35;99682.94;;;16.33;67.33
15817;BME280;8009;50.070;8.232;2023-05-21T04:15:05;99683.19;;;16.48;66.67
15817;BME280;8009;50.070;8.232;2023-05-21T04:17:33;99686.59;;;16.24;67.81
15817;BME280;8009;50.070;8.232;2023-05-21T04:20:02;99682.41;;;16.30;67.63
15817;BME280;8009;50.070;8.232;2023-05-21T04:22:31;99691.25;;;16.32;67.26
15817;BME280;8009;50.070;8.232;2023-05-21T04:24:59;99695.09;;;16.21;67.41
15817;BME280;8009;50.070;8.232;2023-05-21T04:27:30;99688.47;;;16.24;67.79
15817;BME280;8009;50.070;8.232;2023-05-21T04:29:59;99694.56;;;16.44;66.67
15817;BME280;8009;50.070;8.232;2023-05-21T04:32:28;99693.66;;;16.35;67.21
15817;BME280;8009;50.070;8.232;2023-05-21T04:34:57;99698.47;;;16.41;66.81
15817;BME280;8009;50.070;8.232;2023-05-21T04:37:26;99696.00;;;16.56;66.33
15817;BME280;8009;50.070;8.232;2023-05-21T04:39:56;99691.94;;;16.34;67.23
15817;BME280;8009;50.070;8.232;2023-05-21T04:42:25;99700.72;;;16.46;66.86
15817;BME280;8009;50.070;8.232;2023-05-21T04:44:57;99702.94;;;16.50;66.48
15817;BME280;8009;50.070;8.232;2023-05-21T04:47:25;99701.06;;;16.51;66.72
15817;BME280;8009;50.070;8.232;2023-05-21T04:49:54;99699.91;;;16.53;66.60
15817;BME280;8009;50.070;8.232;2023-05-21T04:52:23;99710.88;;;16.70;65.84
15817;BME280;8009;50.070;8.232;2023-05-21T04:54:52;99700.56;;;16.81;65.54
15817;BME280;8009;50.070;8.232;2023-05-21T04:57:20;99702.09;;;16.76;65.96
15817;BME280;8009;50.070;8.232;2023-05-21T04:59:49;99700.22;;;16.50;67.10
15817;BME280;8009;50.070;8.232;2023-05-21T05:02:20;99706.72;;;16.57;66.82
15817;BME280;8009;50.070;8.232;2023-05-21T05:04:48;99702.44;;;16.81;66.13
15817;BME280;8009;50.070;8.232;2023-05-21T05:07:16;99704.25;;;16.72;66.29
15817;BME280;8009;50.070;8.232;2023-05-21T05:09:45;99705.41;;;16.96;65.50
15817;BME280;8009;50.070;8.232;2023-05-21T05:12:13;99695.25;;;17.06;65.10
15817;BME280;8009;50.070;8.232;2023-05-21T05:14:41;99701.28;;;16.84;65.82
15817;BME280;8009;50.070;8.232;2023-05-21T05:17:10;99696.59;;;17.02;64.98
15817;BME280;8009;50.070;8.232;2023-05-21T05:19:46;99694.19;;;16.99;65.42
15817;BME280;8009;50.070;8.232;2023-05-21T05:22:14;99696.13;;;17.15;64.74
15817;BME280;8009;50.070;8.232;2023-05-21T05:27:47;99689.78;;;17.06;65.55
15817;BME280;8009;50.070;8.232;2023-05-21T05:30:15;99692.03;;;16.76;66.79
15817;BME280;8009;50.070;8.232;2023-05-21T05:32:44;99692.84;;;17.11;65.21
15817;BME280;8009;50.070;8.232;2023-05-21T05:35:15;99690.00;;;17.21;65.08
15817;BME280;8009;50.070;8.232;2023-05-21T05:37:44;99687.72;;;17.08;65.47
15817;BME280;8009;50.070;8.232;2023-05-21T05:40:12;99687.09;;;17.22;65.56
15817;BME280;8009;50.070;8.232;2023-05-21T05:42:40;99686.41;;;17.20;65.24
15817;BME280;8009;50.070;8.232;2023-05-21T05:45:10;99686.25;;;17.22;65.24
15817;BME280;8009;50.070;8.232;2023-05-21T05:47:38;99691.91;;;17.28;65.05
15817;BME280;8009;50.070;8.232;2023-05-21T05:50:07;99691.53;;;17.23;65.55
15817;BME280;8009;50.070;8.232;2023-05-21T05:52:38;99690.16;;;17.27;65.86
15817;BME280;8009;50.070;8.232;2023-05-21T05:55:08;99681.34;;;17.58;65.09
15817;BME280;8009;50.070;8.232;2023-05-21T05:57:37;99685.81;;;17.59;65.03
15817;BME280;8009;50.070;8.232;2023-05-21T06:00:07;99683.56;;;17.63;64.74
15817;BME280;8009;50.070;8.232;2023-05-21T06:02:36;99689.91;;;17.63;64.86
15817;BME280;8009;50.070;8.232;2023-05-21T06:05:05;99684.97;;;17.67;64.55
15817;BME280;8009;50.070;8.232;2023-05-21T06:07:35;99683.13;;;17.75;64.52
15817;BME280;8009;50.070;8.232;2023-05-21T06:10:07;99683.13;;;17.75;64.53
15817;BME280;8009;50.070;8.232;2023-05-21T06:12:36;99688.56;;;17.92;63.98
15817;BME280;8009;50.070;8.232;2023-05-21T06:20:40;99685.97;;;18.39;62.71
15817;BME280;8009;50.070;8.232;2023-05-21T06:23:09;99683.47;;;18.69;62.34
15817;BME280;8009;50.070;8.232;2023-05-21T06:25:40;99684.19;;;18.79;61.69
15817;BME280;8009;50.070;8.232;2023-05-21T06:28:08;99694.13;;;18.72;62.50
15817;BME280;8009;50.070;8.232;2023-05-21T06:30:37;99685.94;;;19.03;61.10
15817;BME280;8009;50.070;8.232;2023-05-21T06:33:05;99692.88;;;19.22;61.19
15817;BME280;8009;50.070;8.232;2023-05-21T06:35:34;99696.00;;;19.11;62.58
15817;BME280;8009;50.070;8.232;2023-05-21T06:38:04;99688.81;;;19.41;61.28
15817;BME280;8009;50.070;8.232;2023-05-21T06:40:32;99684.47;;;19.55;59.34
15817;BME280;8009;50.070;8.232;2023-05-21T06:43:03;99684.34;;;19.48;61.00
15817;BME280;8009;50.070;8.232;2023-05-21T06:45:32;99682.38;;;19.57;59.92
15817;BME280;8009;50.070;8.232;2023-05-21T06:48:00;99683.59;;;19.62;59.86
15817;BME280;8009;50.070;8.232;2023-05-21T06:50:29;99684.63;;;19.53;60.30
15817;BME280;8009;50.070;8.232;2023-05-21T06:52:58;99686.75;;;19.74;59.18
15817;BME280;8009;50.070;8.232;2023-05-21T06:55:28;99688.22;;;19.85;59.81
15817;BME280;8009;50.070;8.232;2023-05-21T06:57:56;99686.31;;;20.08;58.91
15817;BME280;8009;50.070;8.232;2023-05-21T07:00:30;99695.13;;;20.18;59.12
15817;BME280;8009;50.070;8.232;2023-05-21T07:03:00;99679.56;;;20.11;58.17
15817;BME280;8009;50.070;8.232;2023-05-21T07:05:29;99690.44;;;20.04;57.68
15817;BME280;8009;50.070;8.232;2023-05-21T07:08:04;99692.94;;;20.29;58.62
15817;BME280;8009;50.070;8.232;2023-05-21T07:10:33;99687.13;;;20.47;57.89
15817;BME280;8009;50.070;8.232;2023-05-21T07:16:41;99693.50;;;20.62;57.62
15817;BME280;8009;50.070;8.232;2023-05-21T07:19:10;99702.38;;;20.64;57.17
15817;BME280;8009;50.070;8.232;2023-05-21T07:21:38;99697.84;;;20.56;56.95
15817;BME280;8009;50.070;8.232;2023-05-21T07:24:07;99695.47;;;20.68;56.57
15817;BME280;8009;50.070;8.232;2023-05-21T07:26:35;99697.09;;;20.77;56.44
15817;BME280;8009;50.070;8.232;2023-05-21T07:29:04;99700.63;;;20.48;57.87
15817;BME280;8009;50.070;8.232;2023-05-21T07:31:33;99688.41;;;20.74;56.18
15817;BME280;8009;50.070;8.232;2023-05-21T07:34:04;99687.19;;;20.76;56.17
15817;BME280;8009;50.070;8.232;2023-05-21T07:36:32;99687.81;;;20.93;55.67
15817;BME280;8009;50.070;8.232;2023-05-21T07:39:01;99679.69;;;21.00;56.71
15817;BME280;8009;50.070;8.232;2023-05-21T07:41:29;99682.00;;;21.17;55.57
15817;BME280;8009;50.070;8.232;2023-05-21T07:43:58;99680.59;;;21.22;54.79
15817;BME280;8009;50.070;8.232;2023-05-21T07:46:26;99672.16;;;21.23;55.61
15817;BME280;8009;50.070;8.232;2023-05-21T07:48:55;99678.00;;;20.99;54.46
15817;BME280;8009;50.070;8.232;2023-05-21T07:51:26;99687.25;;;20.68;55.43
15817;BME280;8009;50.070;8.232;2023-05-21T07:53:55;99689.81;;;20.69;56.85
15817;BME280;8009;50.070;8.232;2023-05-21T07:56:23;99688.09;;;20.83;55.51
15817;BME280;8009;50.070;8.232;2023-05-21T07:58:53;99671.53;;;21.06;55.14
15817;BME280;8009;50.070;8.232;2023-05-21T08:01:21;99682.72;;;20.75;56.37
15817;BME280;8009;50.070;8.232;2023-05-21T08:03:51;99686.47;;;21.18;53.25
15817;BME280;8009;50.070;8.232;2023-05-21T08:06:19;99679.16;;;21.26;55.83
15817;BME280;8009;50.070;8.232;2023-05-21T08:08:51;99673.47;;;21.42;54.96
15817;BME280;8009;50.070;8.232;2023-05-21T08:11:21;99682.28;;;21.23;55.46
15817;BME280;8009;50.070;8.232;2023-05-21T08:13:51;99674.81;;;21.16;54.45
15817;BME280;8009;50.070;8.232;2023-05-21T08:16:19;99684.44;;;20.91;55.63
15817;BME280;8009;50.070;8.232;2023-05-21T08:18:48;99677.50;;;20.95;56.73
15817;BME280;8009;50.070;8.232;2023-05-21T08:21:16;99674.56;;;20.97;55.97
15817;BME280;8009;50.070;8.232;2023-05-21T08:23:45;99678.03;;;21.20;54.72
15817;BME280;8009;50.070;8.232;2023-05-21T08:26:16;99668.72;;;21.36;54.55
15817;BME280;8009;50.070;8.232;2023-05-21T08:28:48;99672.41;;;21.86;52.80
15817;BME280;8009;50.070;8.232;2023-05-21T08:31:18;99674.19;;;21.94;52.73
15817;BME280;8009;50.070;8.232;2023-05-21T08:33:50;99671.44;;;22.43;51.77
15817;BME280;8009;50.070;8.232;2023-05-21T08:36:19;99671.88;;;22.81;51.32
15817;BME280;8009;50.070;8.232;2023-05-21T08:38:47;99667.47;;;23.22;49.57
15817;BME280;8009;50.070;8.232;2023-05-21T08:41:20;99667.94;;;23.32;49.16
15817;BME280;8009;50.070;8.232;2023-05-21T08:43:54;99667.03;;;23.18;49.74
15817;BME280;8009;50.070;8.232;2023-05-21T08:46:24;99670.25;;;22.87;49.26
15817;BME280;8009;50.070;8.232;2023-05-21T08:48:54;99672.28;;;23.06;49.25
15817;BME280;8009;50.070;8.232;2023-05-21T08:51:23;99682.91;;;22.81;49.51
15817;BME280;8009;50.070;8.232;2023-05-21T08:53:51;99676.75;;;22.79;49.46
15817;BME280;8009;50.070;8.232;2023-05-21T08:56:23;99665.84;;;22.93;48.70
15817;BME280;8009;50.070;8.232;2023-05-21T08:58:52;99670.31;;;23.00;48.66
15817;BME280;8009;50.070;8.232;2023-05-21T09:01:21;99665.28;;;23.10;47.98
15817;BME280;8009;50.070;8.232;2023-05-21T09:03:51;99667.25;;;23.23;47.67
15817;BME280;8009;50.070;8.232;2023-05-21T09:06:23;99661.34;;;23.33;47.89
15817;BME280;8009;50.070;8.232;2023-05-21T09:08:57;99662.66;;;23.44;47.93
15817;BME280;8009;50.070;8.232;2023-05-21T09:11:30;99665.84;;;23.47;47.92
15817;BME280;8009;50.070;8.232;2023-05-21T09:13:59;99667.13;;;23.58;47.87
15817;BME280;8009;50.070;8.232;2023-05-21T09:16:28;99667.34;;;23.43;46.89
15817;BME280;8009;50.070;8.232;2023-05-21T09:18:57;99657.94;;;23.24;47.83
15817;BME280;8009;50.070;8.232;2023-05-21T09:21:27;99665.81;;;22.86;48.42
15817;BME280;8009;50.070;8.232;2023-05-21T09:23:58;99667.56;;;22.66;49.53
15817;BME280;8009;50.070;8.232;2023-05-21T09:26:29;99667.63;;;22.72;49.20
15817;BME280;8009;50.070;8.232;2023-05-21T09:28:59;99658.97;;;23.17;48.16
15817;BME280;8009;50.070;8.232;2023-05-21T09:31:28;99654.09;;;23.19;48.72
15817;BME280;8009;50.070;8.232;2023-05-21T09:33:58;99666.31;;;23.03;48.42
15817;BME280;8009;50.070;8.232;2023-05-21T09:36:55;99652.50;;;23.44;47.92
15817;BME280;8009;50.070;8.232;2023-05-21T09:39:28;99647.66;;;23.59;47.31
15817;BME280;8009;50.070;8.232;2023-05-21T09:42:00;99651.34;;;23.93;47.14
15817;BME280;8009;50.070;8.232;2023-05-21T09:44:28;99640.28;;;23.87;46.43
15817;BME280;8009;50.070;8.232;2023-05-21T09:46:57;99645.81;;;23.93;44.98
15817;BME280;8009;50.070;8.232;2023-05-21T09:49:25;99645.59;;;24.28;45.08
15817;BME280;8009;50.070;8.232;2023-05-21T09:51:55;99644.94;;;24.66;45.42
15817;BME280;8009;50.070;8.232;2023-05-21T09:54:24;99644.72;;;24.34;45.39
15817;BME280;8009;50.070;8.232;2023-05-21T09:57:01;99652.78;;;24.29;45.80
15817;BME280;8009;50.070;8.232;2023-05-21T09:59:38;99639.75;;;24.83;44.81
15817;BME280;8009;50.070;8.232;2023-05-21T10:02:15;99645.09;;;24.77;46.25
15817;BME280;8009;50.070;8.232;2023-05-21T10:04:48;99644.78;;;24.99;45.40
15817;BME280;8009;50.070;8.232;2023-05-21T10:07:19;99639.75;;;25.41;43.18
15817;BME280;8009;50.070;8.232;2023-05-21T10:09:52;99640.94;;;25.20;44.80
15817;BME280;8009;50.070;8.232;2023-05-21T10:12:24;99637.69;;;25.29;43.30
15817;BME280;8009;50.070;8.232;2023-05-21T10:14:59;99628.47;;;25.81;43.00
15817;BME280;8009;50.070;8.232;2023-05-21T10:17:29;99629.47;;;25.86;42.82
15817;BME280;8009;50.070;8.232;2023-05-21T10:19:58;99616.41;;;26.00;42.24
15817;BME280;8009;50.070;8.232;2023-05-21T10:22:31;99615.72;;;26.30;43.17
15817;BME280;8009;50.070;8.232;2023-05-21T10:25:00;99617.63;;;26.04;42.54
15817;BME280;8009;50.070;8.232;2023-05-21T10:27:33;99611.94;;;26.42;40.25
15817;BME280;8009;50.070;8.232;2023-05-21T10:30:03;99607.13;;;26.13;40.49
15817;BME280;8009;50.070;8.232;2023-05-21T10:32:33;99605.78;;;26.22;42.12
15817;BME280;8009;50.070;8.232;2023-05-21T10:35:02;99606.91;;;25.89;41.45
15817;BME280;8009;50.070;8.232;2023-05-21T10:37:30;99597.47;;;25.72;42.61
15817;BME280;8009;50.070;8.232;2023-05-21T10:39:58;99601.59;;;25.56;42.95
15817;BME280;8009;50.070;8.232;2023-05-21T10:42:51;99600.59;;;26.07;41.80
15817;BME280;8009;50.070;8.232;2023-05-21T10:45:37;99592.53;;;25.74;42.21
15817;BME280;8009;50.070;8.232;2023-05-21T10:48:21;99590.81;;;26.30;41.03
15817;BME280;8009;50.070;8.232;2023-05-21T10:51:07;99582.94;;;26.27;40.95
15817;BME280;8009;50.070;8.232;2023-05-21T10:53:54;99590.50;;;26.38;40.07
15817;BME280;8009;50.070;8.232;2023-05-21T10:56:34;99593.88;;;25.65;40.95
15817;BME280;8009;50.070;8.232;2023-05-21T10:59:13;99602.75;;;25.73;40.34
15817;BME280;8009;50.070;8.232;2023-05-21T11:01:47;99595.22;;;26.12;39.72
15817;BME280;8009;50.070;8.232;2023-05-21T11:04:20;99596.47;;;25.91;39.52
15817;BME280;8009;50.070;8.232;2023-05-21T11:06:49;99597.00;;;26.25;39.59
15817;BME280;8009;50.070;8.232;2023-05-21T11:09:17;99601.81;;;25.86;40.40
15817;BME280;8009;50.070;8.232;2023-05-21T11:11:49;99608.69;;;26.27;39.01
15817;BME280;8009;50.070;8.232;2023-05-21T11:14:31;99598.94;;;26.43;38.41
15817;BME280;8009;50.070;8.232;2023-05-21T11:17:09;99600.16;;;26.10;39.03
15817;BME280;8009;50.070;8.232;2023-05-21T11:19:39;99600.31;;;25.59;41.29
15817;BME280;8009;50.070;8.232;2023-05-21T11:22:09;99593.47;;;25.93;39.93
15817;BME280;8009;50.070;8.232;2023-05-21T11:24:39;99599.97;;;26.05;40.24
15817;BME280;8009;50.070;8.232;2023-05-21T11:27:07;99591.69;;;25.73;40.85
15817;BME280;8009;50.070;8.232;2023-05-21T11:29:43;99599.38;;;25.40;41.75
15817;BME280;8009;50.070;8.232;2023-05-21T11:32:13;99598.94;;;25.43;41.66
15817;BME280;8009;50.070;8.232;2023-05-21T11:34:45;99590.81;;;25.48;41.06
15817;BME280;8009;50.070;8.232;2023-05-21T11:37:27;99597.13;;;25.23;42.17
15817;BME280;8009;50.070;8.232;2023-05-21T11:40:17;99593.22;;;25.94;41.47
15817;BME280;8009;50.070;8.232;2023-05-21T11:42:49;99594.03;;;26.01;39.95
15817;BME280;8009;50.070;8.232;2023-05-21T11:45:22;99586.94;;;25.87;40.75
15817;BME280;8009;50.070;8.232;2023-05-21T11:47:51;99586.91;;;25.56;40.69
15817;BME280;8009;50.070;8.232;2023-05-21T11:50:25;99582.50;;;25.48;42.81
15817;BME280;8009;50.070;8.232;2023-05-21T11:52:58;99592.03;;;25.20;42.84
15817;BME280;8009;50.070;8.232;2023-05-21T11:55:26;99585.16;;;25.36;42.01
15817;BME280;8009;50.070;8.232;2023-05-21T11:58:01;99580.66;;;25.67;42.21
15817;BME280;8009;50.070;8.232;2023-05-21T12:00:39;99585.41;;;25.60;42.53
15817;BME280;8009;50.070;8.232;2023-05-21T12:03:12;99588.13;;;25.35;42.20
15817;BME280;8009;50.070;8.232;2023-05-21T12:06:04;99589.28;;;25.52;41.50
15817;BME280;8009;50.070;8.232;2023-05-21T12:08:55;99589.34;;;25.45;42.41
15817;BME280;8009;50.070;8.232;2023-05-21T12:11:25;99590.69;;;25.29;42.45
15817;BME280;8009;50.070;8.232;2023-05-21T12:13:58;99582.94;;;25.13;41.82
15817;BME280;8009;50.070;8.232;2023-05-21T12:16:29;99587.41;;;25.08;43.19
15817;BME280;8009;50.070;8.232;2023-05-21T12:18:58;99581.66;;;25.79;40.96
15817;BME280;8009;50.070;8.232;2023-05-21T12:21:27;99583.19;;;25.43;42.91
15817;BME280;8009;50.070;8.232;2023-05-21T12:23:56;99572.66;;;25.59;41.55
15817;BME280;8009;50.070;8.232;2023-05-21T12:26:24;99580.81;;;25.09;43.15
15817;BME280;8009;50.070;8.232;2023-05-21T12:28:54;99581.69;;;25.41;40.27
15817;BME280;8009;50.070;8.232;2023-05-21T12:31:22;99584.25;;;25.42;41.29
15817;BME280;8009;50.070;8.232;2023-05-21T12:33:54;99584.63;;;25.77;41.39
15817;BME280;8009;50.070;8.232;2023-05-21T12:36:25;99585.53;;;25.40;41.13
15817;BME280;8009;50.070;8.232;2023-05-21T12:38:59;99586.25;;;25.60;40.79
15817;BME280;8009;50.070;8.232;2023-05-21T12:41:45;99579.00;;;25.66;40.88
15817;BME280;8009;50.070;8.232;2023-05-21T12:44:15;99574.50;;;25.40;41.83
15817;BME280;8009;50.070;8.232;2023-05-21T12:46:45;99573.34;;;25.22;41.86
15817;BME280;8009;50.070;8.232;2023-05-21T12:52:27;99576.81;;;25.68;42.57
15817;BME280;8009;50.070;8.232;2023-05-21T12:54:57;99566.13;;;25.53;40.85
15817;BME280;8009;50.070;8.232;2023-05-21T12:57:27;99575.00;;;25.30;41.43
15817;BME280;8009;50.070;8.232;2023-05-21T13:00:05;99558.28;;;25.50;40.74
15817;BME280;8009;50.070;8.232;2023-05-21T13:02:38;99574.13;;;25.29;40.96
15817;BME280;8009;50.070;8.232;2023-05-21T13:05:08;99571.28;;;25.43;41.05
15817;BME280;8009;50.070;8.232;2023-05-21T13:11:10;99568.53;;;25.43;39.73
15817;BME280;8009;50.070;8.232;2023-05-21T13:16:54;99563.84;;;25.43;40.47
15817;BME280;8009;50.070;8.232;2023-05-21T13:19:23;99552.91;;;25.30;40.05
15817;BME280;8009;50.070;8.232;2023-05-21T13:21:51;99560.41;;;25.16;40.28
15817;BME280;8009;50.070;8.232;2023-05-21T13:24:19;99564.78;;;24.86;41.90
15817;BME280;8009;50.070;8.232;2023-05-21T13:26:50;99556.09;;;24.82;41.18
15817;BME280;8009;50.070;8.232;2023-05-21T13:29:29;99553.88;;;24.97;40.49
15817;BME280;8009;50.070;8.232;2023-05-21T13:36:53;99556.56;;;25.17;40.16
15817;BME280;8009;50.070;8.232;2023-05-21T13:39:41;99553.78;;;25.24;40.00
15817;BME280;8009;50.070;8.232;2023-05-21T13:42:24;99557.47;;;25.04;40.47
15817;BME280;8009;50.070;8.232;2023-05-21T13:44:53;99552.78;;;25.05;40.53
15817;BME280;8009;50.070;8.232;2023-05-21T13:47:22;99550.06;;;25.37;39.16
15817;BME280;8009;50.070;8.232;2023-05-21T13:49:50;99552.22;;;24.90;40.27
15817;BME280;8009;50.070;8.232;2023-05-21T13:52:18;99553.22;;;25.02;39.81
15817;BME280;8009;50.070;8.232;2023-05-21T13:54:47;99546.03;;;24.94;40.42